createdAt,value
2019-03-13T00:01:29.258Z,9.67
2019-03-13T00:04:02.346Z,8.50
2019-03-13T00:06:35.562Z,8.97
2019-03-13T00:09:13.121Z,8.60
2019-03-13T00:11:46.035Z,8.97
2019-03-13T00:14:20.174Z,8.83
2019-03-13T00:16:54.247Z,9.27
2019-03-13T00:19:27.212Z,8.10
2019-03-13T00:22:00.134Z,9.73
2019-03-13T00:24:33.224Z,8.73
2019-03-13T00:27:06.036Z,9.27
2019-03-13T00:29:40.113Z,8.40
2019-03-13T00:32:14.417Z,8.60
2019-03-13T00:34:47.279Z,8.50
2019-03-13T00:37:20.126Z,7.83
2019-03-13T00:39:52.953Z,7.63
2019-03-13T00:42:25.903Z,7.83
2019-03-13T00:44:58.706Z,7.60
2019-03-13T00:47:31.655Z,8.17
2019-03-13T00:50:04.472Z,7.30
2019-03-13T00:52:37.253Z,7.53
2019-03-13T00:55:10.086Z,7.80
2019-03-13T00:57:42.820Z,7.47
2019-03-13T01:00:21.085Z,7.07
2019-03-13T01:02:54.385Z,7.30
2019-03-13T01:05:32.645Z,6.83
2019-03-13T01:08:05.522Z,7.83
2019-03-13T01:10:38.386Z,7.90
2019-03-13T01:13:11.205Z,6.87
2019-03-13T01:15:44.043Z,6.83
2019-03-13T01:18:16.844Z,6.67
2019-03-13T01:20:49.696Z,6.70
2019-03-13T01:23:22.647Z,7.37
2019-03-13T01:25:55.533Z,7.37
2019-03-13T01:28:28.557Z,6.83
2019-03-13T01:31:35.468Z,6.83
2019-03-13T01:34:26.023Z,7.13
2019-03-13T01:36:58.920Z,7.00
2019-03-13T01:39:31.799Z,7.40
2019-03-13T01:42:04.545Z,6.83
2019-03-13T01:44:40.458Z,7.47
2019-03-13T01:47:11.853Z,6.87
2019-03-13T01:49:44.676Z,7.47
2019-03-13T01:52:17.808Z,7.03
2019-03-13T01:54:50.638Z,7.17
2019-03-13T01:57:23.463Z,6.47
2019-03-13T01:59:56.396Z,7.40
2019-03-13T02:02:29.310Z,7.20
2019-03-13T02:05:02.151Z,6.97
2019-03-13T02:07:35.066Z,7.43
2019-03-13T02:10:08.895Z,7.50
2019-03-13T02:12:43.998Z,6.83
2019-03-13T02:15:21.196Z,7.63
2019-03-13T02:17:54.367Z,7.00
2019-03-13T02:20:27.450Z,7.40
2019-03-13T02:23:00.441Z,6.77
2019-03-13T02:25:33.269Z,7.23
2019-03-13T02:28:06.130Z,6.90
2019-03-13T02:30:38.941Z,6.30
2019-03-13T02:33:11.730Z,7.13
2019-03-13T02:35:44.572Z,6.80
2019-03-13T02:38:17.458Z,6.70
2019-03-13T02:40:50.508Z,6.67
2019-03-13T02:43:23.332Z,6.40
2019-03-13T02:45:56.180Z,6.80
2019-03-13T02:48:29.057Z,5.97
2019-03-13T02:51:01.956Z,6.63
2019-03-13T02:53:34.736Z,6.30
2019-03-13T02:56:07.623Z,6.53
2019-03-13T02:58:40.521Z,5.90
2019-03-13T03:01:20.883Z,7.13
2019-03-13T03:03:55.773Z,6.20
2019-03-13T03:06:28.572Z,6.53
2019-03-13T03:09:01.422Z,6.83
2019-03-13T03:11:35.759Z,6.50
2019-03-13T03:14:09.483Z,6.37
2019-03-13T03:16:42.317Z,6.40
2019-03-13T03:19:15.141Z,6.00
2019-03-13T03:21:47.942Z,6.60
2019-03-13T03:24:20.771Z,5.87
2019-03-13T03:26:53.700Z,6.40
2019-03-13T03:29:26.605Z,6.23
2019-03-13T03:31:59.504Z,5.53
2019-03-13T03:34:32.350Z,6.03
2019-03-13T03:37:05.174Z,5.37
2019-03-13T03:39:37.970Z,5.47
2019-03-13T03:42:11.177Z,5.33
2019-03-13T03:44:43.931Z,5.40
2019-03-13T03:47:16.771Z,5.27
2019-03-13T03:49:49.493Z,6.53
2019-03-13T03:52:22.299Z,5.77
2019-03-13T03:54:55.102Z,4.50
2019-03-13T03:57:27.838Z,4.80
2019-03-13T04:00:00.658Z,4.47
2019-03-13T04:02:33.561Z,3.83
2019-03-13T04:05:06.797Z,4.20
2019-03-13T04:07:39.572Z,4.70
2019-03-13T04:10:12.748Z,4.57
2019-03-13T04:12:45.661Z,4.27
2019-03-13T04:15:18.890Z,4.00
2019-03-13T04:17:51.618Z,3.60
2019-03-13T04:20:24.414Z,3.80
2019-03-13T04:22:57.199Z,3.70
2019-03-13T04:25:37.369Z,3.93
2019-03-13T04:28:10.193Z,4.10
2019-03-13T04:30:42.921Z,3.93
2019-03-13T04:33:15.922Z,3.23
2019-03-13T04:35:48.608Z,4.30
2019-03-13T04:38:21.445Z,4.70
2019-03-13T04:40:54.183Z,4.07
2019-03-13T04:43:27.117Z,4.20
2019-03-13T04:45:59.850Z,3.97
2019-03-13T04:48:32.599Z,3.87
2019-03-13T04:51:05.394Z,3.27
2019-03-13T04:53:38.156Z,3.60
2019-03-13T04:56:11.011Z,3.27
2019-03-13T04:58:43.822Z,3.63
2019-03-13T05:01:16.596Z,4.10
2019-03-13T05:03:49.388Z,4.00
2019-03-13T05:06:24.242Z,3.90
2019-03-13T05:09:21.644Z,4.50
2019-03-13T05:11:54.491Z,3.43
2019-03-13T05:14:27.441Z,4.10
2019-03-13T05:17:00.274Z,3.73
2019-03-13T05:19:33.070Z,3.83
2019-03-13T05:22:05.865Z,3.90
2019-03-13T05:24:38.577Z,3.87
2019-03-13T05:27:11.381Z,4.00
2019-03-13T05:29:44.282Z,4.10
2019-03-13T05:32:17.091Z,4.57
2019-03-13T05:34:49.960Z,4.03
2019-03-13T05:37:22.812Z,4.30
2019-03-13T05:39:55.582Z,3.67
2019-03-13T05:42:28.604Z,3.83
2019-03-13T05:45:01.797Z,3.10
2019-03-13T05:47:34.719Z,3.80
2019-03-13T05:50:07.908Z,4.53
2019-03-13T05:52:41.770Z,3.47
2019-03-13T05:55:14.812Z,3.30
2019-03-13T05:57:47.608Z,3.20
2019-03-13T06:00:21.257Z,3.33
2019-03-13T06:02:54.123Z,2.90
2019-03-13T06:05:27.017Z,2.83
2019-03-13T06:07:59.891Z,2.70
2019-03-13T06:10:32.874Z,2.90
2019-03-13T06:13:05.789Z,3.03
2019-03-13T06:15:38.614Z,2.73
2019-03-13T06:18:11.379Z,3.10
2019-03-13T06:20:44.123Z,3.27
2019-03-13T06:23:17.038Z,3.40
2019-03-13T06:25:50.032Z,2.62
2019-03-13T06:28:22.830Z,3.20
2019-03-13T06:30:55.544Z,3.30
2019-03-13T06:33:28.376Z,3.23
2019-03-13T06:36:01.225Z,4.03
2019-03-13T06:38:34.096Z,4.03
2019-03-13T06:41:07.014Z,4.20
2019-03-13T06:43:39.843Z,3.67
2019-03-13T06:46:12.663Z,4.10
2019-03-13T06:48:45.533Z,3.80
2019-03-13T06:51:18.256Z,4.00
2019-03-13T06:53:51.029Z,3.57
2019-03-13T06:56:23.984Z,4.30
2019-03-13T06:59:14.283Z,3.90
2019-03-13T07:02:04.563Z,4.72
2019-03-13T07:04:56.241Z,5.00
2019-03-13T07:07:46.703Z,4.47
2019-03-13T07:10:26.019Z,3.93
2019-03-13T07:13:14.991Z,4.03
2019-03-13T07:15:57.032Z,4.20
2019-03-13T07:18:42.272Z,3.47
2019-03-13T07:21:30.640Z,3.80
2019-03-13T07:24:21.002Z,3.47
2019-03-13T07:27:26.251Z,4.03
2019-03-13T07:30:22.429Z,4.00
2019-03-13T07:33:29.213Z,4.23
2019-03-13T07:36:15.608Z,3.93
2019-03-13T07:39:11.325Z,4.07
2019-03-13T07:42:05.991Z,4.43
2019-03-13T07:44:57.630Z,4.15
2019-03-13T07:47:41.497Z,6.47
2019-03-13T07:50:42.200Z,3.80
2019-03-13T07:53:45.875Z,3.80
2019-03-13T07:56:43.915Z,4.12
2019-03-13T07:59:48.151Z,3.92
2019-03-13T08:02:46.164Z,4.07
2019-03-13T08:05:41.200Z,4.17
2019-03-13T08:08:48.324Z,4.23
2019-03-13T08:11:34.399Z,8.68
2019-03-13T08:14:22.780Z,4.37
2019-03-13T08:17:02.313Z,4.27
2019-03-13T08:19:59.839Z,3.90
2019-03-13T08:22:50.307Z,3.50
2019-03-13T08:25:32.452Z,3.60
2019-03-13T08:28:16.600Z,3.50
2019-03-13T08:31:10.974Z,3.20
2019-03-13T08:34:09.871Z,3.15
2019-03-13T08:36:51.912Z,3.65
2019-03-13T08:39:46.549Z,3.20
2019-03-13T08:42:30.669Z,2.80
2019-03-13T08:45:19.883Z,2.90
2019-03-13T08:48:20.477Z,3.20
2019-03-13T08:51:12.020Z,3.10
2019-03-13T08:54:20.467Z,2.70
2019-03-13T08:57:22.885Z,2.35
2019-03-13T09:00:09.117Z,2.10
2019-03-13T09:02:52.440Z,2.10
2019-03-13T09:05:39.548Z,2.25
2019-03-13T09:08:37.205Z,2.08
2019-03-13T09:11:28.771Z,1.60
2019-03-13T09:14:23.311Z,1.80
2019-03-13T09:17:19.427Z,1.90
2019-03-13T09:20:13.744Z,2.20
2019-03-13T09:23:23.443Z,2.12
2019-03-13T09:26:11.513Z,1.87
2019-03-13T09:29:08.798Z,2.02
2019-03-13T09:32:00.490Z,2.10
2019-03-13T09:35:10.336Z,2.30
2019-03-13T09:38:20.067Z,2.25
2019-03-13T09:41:30.126Z,1.90
2019-03-13T09:44:21.809Z,1.60
2019-03-13T09:47:22.989Z,2.17
2019-03-13T09:50:26.731Z,2.00
2019-03-13T09:53:12.708Z,2.10
2019-03-13T09:56:04.449Z,1.90
2019-03-13T09:59:14.437Z,1.77
2019-03-13T10:02:08.891Z,2.10
2019-03-13T10:05:03.305Z,1.92
2019-03-13T10:08:03.823Z,2.02
2019-03-13T10:10:43.369Z,1.87
2019-03-13T10:13:50.151Z,1.60
2019-03-13T10:16:47.859Z,1.60
2019-03-13T10:19:43.167Z,1.70
2019-03-13T10:22:27.890Z,2.30
2019-03-13T10:25:08.780Z,2.15
2019-03-13T10:28:12.510Z,1.90
2019-03-13T10:31:08.282Z,2.08
2019-03-13T10:34:02.963Z,2.40
2019-03-13T10:37:06.634Z,2.10
2019-03-13T10:40:07.802Z,2.47
2019-03-13T10:43:02.332Z,2.40
2019-03-13T10:45:56.801Z,2.17
2019-03-13T10:49:03.652Z,2.47
2019-03-13T10:51:48.518Z,2.25
2019-03-13T10:54:28.215Z,2.62
2019-03-13T10:57:10.715Z,2.65
2019-03-13T10:59:49.345Z,1.90
2019-03-13T11:02:37.531Z,1.90
2019-03-13T11:05:30.073Z,1.60
2019-03-13T11:08:12.645Z,1.80
2019-03-13T11:10:53.438Z,2.12
2019-03-13T11:13:33.569Z,2.05
2019-03-13T11:16:27.988Z,1.90
2019-03-13T11:19:23.379Z,2.40
2019-03-13T11:22:08.716Z,5.10
2019-03-13T11:24:53.087Z,1.85
2019-03-13T11:27:43.784Z,1.90
2019-03-13T11:30:35.989Z,1.70
2019-03-13T11:33:33.902Z,1.82
2019-03-13T11:36:16.298Z,2.08
2019-03-13T11:39:04.024Z,1.80
2019-03-13T11:42:03.588Z,2.05
2019-03-13T11:44:58.637Z,1.60
2019-03-13T11:47:50.294Z,1.60
2019-03-13T11:50:28.629Z,1.90
2019-03-13T11:53:13.121Z,1.65
2019-03-13T11:56:07.517Z,1.70
2019-03-13T11:58:53.078Z,1.77
2019-03-13T12:01:47.688Z,1.65
2019-03-13T12:04:55.210Z,1.60
2019-03-13T12:07:46.856Z,1.55
2019-03-13T12:10:37.361Z,1.50
2019-03-13T12:13:23.584Z,1.30
2019-03-13T12:16:14.135Z,1.60
2019-03-13T12:19:06.433Z,1.60
2019-03-13T12:21:49.598Z,1.40
2019-03-13T12:24:30.037Z,1.50
2019-03-13T12:27:17.698Z,1.60
2019-03-13T12:30:04.152Z,1.32
2019-03-13T12:33:11.706Z,1.92
2019-03-13T12:36:49.534Z,1.90
2019-03-13T12:39:42.241Z,1.80
2019-03-13T12:42:34.112Z,1.70
2019-03-13T12:45:27.846Z,1.42
2019-03-13T12:48:16.661Z,1.30
2019-03-13T12:51:01.761Z,1.15
2019-03-13T12:53:44.180Z,1.05
2019-03-13T12:56:45.039Z,1.00
2019-03-13T12:59:48.645Z,1.10
2019-03-13T13:02:49.593Z,1.40
2019-03-13T13:05:41.114Z,1.50
2019-03-13T13:08:41.815Z,1.37
2019-03-13T13:11:48.564Z,1.35
2019-03-13T13:14:35.329Z,1.27
2019-03-13T13:17:34.096Z,0.98
2019-03-13T13:20:08.563Z,1.50
2019-03-13T13:22:41.504Z,1.40
2019-03-13T13:25:15.410Z,1.15
2019-03-13T13:27:48.272Z,1.50
2019-03-13T13:30:21.100Z,1.17
2019-03-13T13:32:53.889Z,1.20
2019-03-13T13:35:26.747Z,1.20
2019-03-13T13:37:59.636Z,1.00
2019-03-13T13:40:32.535Z,1.10
2019-03-13T13:43:05.313Z,1.02
2019-03-13T13:46:15.070Z,1.60
2019-03-13T13:48:48.292Z,1.02
2019-03-13T13:51:21.125Z,1.10
2019-03-13T13:53:55.799Z,0.95
2019-03-13T13:56:28.949Z,1.22
2019-03-13T13:59:01.737Z,1.10
2019-03-13T14:01:34.613Z,1.12
2019-03-13T14:04:07.473Z,1.00
2019-03-13T14:06:40.380Z,1.30
2019-03-13T14:09:13.304Z,1.40
2019-03-13T14:11:46.211Z,1.37
2019-03-13T14:14:19.129Z,1.40
2019-03-13T14:16:51.808Z,1.22
2019-03-13T14:19:24.712Z,1.42
2019-03-13T14:21:57.620Z,1.37
2019-03-13T14:24:30.561Z,1.22
2019-03-13T14:27:13.879Z,1.20
2019-03-13T14:29:38.890Z,1.40
2019-03-13T14:32:11.612Z,1.45
2019-03-13T14:34:44.499Z,1.40
2019-03-13T14:37:17.337Z,1.12
2019-03-13T14:39:50.134Z,1.20
2019-03-13T14:42:23.052Z,1.40
2019-03-13T14:44:55.764Z,1.20
2019-03-13T14:47:28.681Z,1.30
2019-03-13T14:50:02.996Z,1.30
2019-03-13T14:52:36.290Z,1.20
2019-03-13T14:55:10.754Z,1.25
2019-03-13T14:57:43.491Z,1.37
2019-03-13T15:00:17.778Z,1.55
2019-03-13T15:02:50.834Z,1.60
2019-03-13T15:05:23.639Z,1.50
2019-03-13T15:07:56.478Z,1.50
2019-03-13T15:10:30.306Z,1.20
2019-03-13T15:13:03.292Z,1.50
2019-03-13T15:15:36.432Z,1.50
2019-03-13T15:18:09.298Z,1.82
2019-03-13T15:20:42.109Z,1.40
2019-03-13T15:23:14.889Z,2.02
2019-03-13T15:25:48.716Z,3.00
2019-03-13T15:28:21.983Z,2.05
2019-03-13T15:30:54.871Z,1.85
2019-03-13T15:33:27.972Z,1.65
2019-03-13T15:36:00.806Z,1.67
2019-03-13T15:38:36.141Z,1.80
2019-03-13T15:41:11.406Z,1.50
2019-03-13T15:43:44.474Z,1.42
2019-03-13T15:46:17.434Z,1.55
2019-03-13T15:48:50.391Z,1.60
2019-03-13T15:51:23.110Z,1.80
2019-03-13T15:53:55.893Z,2.05
2019-03-13T15:56:31.496Z,1.70
2019-03-13T15:59:04.409Z,1.67
2019-03-13T16:01:37.303Z,1.90
2019-03-13T16:04:10.185Z,1.60
2019-03-13T16:06:42.960Z,2.10
2019-03-13T16:09:18.670Z,1.92
2019-03-13T16:11:51.471Z,1.80
2019-03-13T16:14:24.205Z,1.90
2019-03-13T16:16:57.363Z,2.00
2019-03-13T16:19:30.360Z,1.62
2019-03-13T16:22:05.671Z,2.10
2019-03-13T16:24:38.815Z,1.80
2019-03-13T16:27:11.767Z,2.08
2019-03-13T16:29:47.256Z,2.42
2019-03-13T16:32:20.762Z,2.60
2019-03-13T16:34:53.696Z,3.30
2019-03-13T16:37:28.147Z,3.00
2019-03-13T16:40:00.982Z,2.75
2019-03-13T16:42:34.038Z,3.50
2019-03-13T16:45:08.584Z,5.15
2019-03-13T16:47:41.547Z,9.38
2019-03-13T16:50:16.629Z,10.25
2019-03-13T16:52:49.649Z,11.45
2019-03-13T16:55:23.547Z,13.10
2019-03-13T16:57:56.369Z,10.60
2019-03-13T17:00:29.812Z,10.98
2019-03-13T17:03:02.894Z,9.58
2019-03-13T17:05:35.797Z,9.48
2019-03-13T17:08:08.732Z,9.40
2019-03-13T17:10:41.502Z,9.50
2019-03-13T17:13:14.361Z,10.20
2019-03-13T17:15:48.075Z,11.63
2019-03-13T17:18:21.065Z,11.88
2019-03-13T17:20:54.036Z,12.40
2019-03-13T17:23:27.813Z,10.82
2019-03-13T17:26:00.823Z,9.95
2019-03-13T17:28:34.064Z,8.05
2019-03-13T17:31:07.256Z,7.30
2019-03-13T17:33:40.086Z,6.87
2019-03-13T17:36:13.361Z,6.33
2019-03-13T17:38:46.406Z,6.25
2019-03-13T17:41:19.325Z,6.40
2019-03-13T17:43:52.279Z,5.50
2019-03-13T17:46:25.208Z,4.67
2019-03-13T17:48:58.298Z,4.42
2019-03-13T17:51:31.120Z,4.45
2019-03-13T17:54:04.426Z,5.10
2019-03-13T17:56:37.194Z,5.78
2019-03-13T17:59:11.316Z,8.18
2019-03-13T18:01:44.109Z,8.68
2019-03-13T18:04:16.924Z,11.22
2019-03-13T18:06:50.769Z,10.43
2019-03-13T18:09:24.728Z,9.75
2019-03-13T18:11:57.581Z,8.75
2019-03-13T18:14:32.176Z,8.70
2019-03-13T18:17:04.959Z,7.15
2019-03-13T18:19:38.005Z,7.80
2019-03-13T18:22:10.765Z,7.05
2019-03-13T18:24:43.615Z,8.03
2019-03-13T18:27:16.412Z,7.03
2019-03-13T18:29:50.309Z,8.33
2019-03-13T18:32:23.127Z,8.68
2019-03-13T18:34:55.892Z,7.97
2019-03-13T18:37:28.776Z,6.53
2019-03-13T18:40:01.611Z,8.33
2019-03-13T18:42:34.567Z,7.85
2019-03-13T18:45:11.126Z,8.18
2019-03-13T18:47:44.986Z,7.22
2019-03-13T18:50:18.024Z,9.53
2019-03-13T18:52:50.879Z,8.73
2019-03-13T18:55:24.207Z,8.85
2019-03-13T18:57:57.049Z,9.40
2019-03-13T19:00:31.113Z,9.40
2019-03-13T19:03:04.215Z,8.83
2019-03-13T19:05:37.039Z,8.88
2019-03-13T19:08:10.090Z,8.15
2019-03-13T19:10:43.419Z,7.03
2019-03-13T19:13:16.338Z,6.75
2019-03-13T19:15:49.209Z,6.62
2019-03-13T19:18:22.055Z,6.33
2019-03-13T19:20:54.822Z,6.53
2019-03-13T19:23:27.764Z,8.00
2019-03-13T19:26:00.785Z,7.22
2019-03-13T19:28:33.774Z,7.50
2019-03-13T19:31:07.818Z,5.97
2019-03-13T19:33:40.697Z,5.90
2019-03-13T19:36:13.460Z,5.22
2019-03-13T19:38:46.358Z,5.37
2019-03-13T19:41:19.157Z,4.83
2019-03-13T19:43:51.928Z,4.78
2019-03-13T19:46:24.857Z,4.97
2019-03-13T19:48:57.869Z,4.92
2019-03-13T19:51:30.703Z,5.33
2019-03-13T19:54:03.731Z,4.40
2019-03-13T19:56:36.694Z,5.40
2019-03-13T19:59:09.754Z,5.33
2019-03-13T20:01:42.596Z,5.25
2019-03-13T20:04:16.101Z,4.80
2019-03-13T20:06:52.097Z,6.05
2019-03-13T20:09:25.328Z,4.80
2019-03-13T20:11:58.317Z,6.05
2019-03-13T20:14:31.317Z,6.12
2019-03-13T20:17:05.070Z,6.22
2019-03-13T20:19:38.180Z,7.03
2019-03-13T20:22:10.941Z,7.50
2019-03-13T20:24:43.958Z,6.53
2019-03-13T20:27:16.956Z,6.65
2019-03-13T20:29:51.617Z,6.15
2019-03-13T20:32:24.659Z,6.25
2019-03-13T20:34:57.566Z,6.60
2019-03-13T20:37:30.356Z,5.58
2019-03-13T20:40:03.184Z,5.17
2019-03-13T20:42:37.556Z,5.72
2019-03-13T20:45:12.948Z,5.33
2019-03-13T20:47:46.178Z,6.45
2019-03-13T20:50:20.576Z,6.28
2019-03-13T20:52:53.565Z,6.60
2019-03-13T20:55:26.429Z,5.78
2019-03-13T20:57:59.528Z,6.75
2019-03-13T21:00:34.645Z,4.35
2019-03-13T21:03:07.676Z,5.60
2019-03-13T21:05:40.544Z,6.20
2019-03-13T21:08:13.800Z,6.15
2019-03-13T21:10:46.822Z,6.17
2019-03-13T21:13:19.713Z,5.28
2019-03-13T21:15:52.507Z,4.83
2019-03-13T21:18:25.367Z,5.45
2019-03-13T21:20:59.295Z,5.58
2019-03-13T21:23:32.059Z,4.35
2019-03-13T21:26:05.023Z,3.90
2019-03-13T21:28:37.905Z,3.90
2019-03-13T21:31:10.810Z,3.75
2019-03-13T21:33:44.602Z,3.77
2019-03-13T21:36:17.531Z,4.47
2019-03-13T21:38:51.447Z,4.25
2019-03-13T21:41:24.241Z,4.83
2019-03-13T21:43:57.069Z,4.42
2019-03-13T21:46:29.965Z,4.28
2019-03-13T21:49:03.111Z,5.28
2019-03-13T21:51:36.030Z,4.33
2019-03-13T21:54:08.923Z,4.30
2019-03-13T21:56:41.631Z,5.87
2019-03-13T21:59:18.556Z,5.28
2019-03-13T22:01:51.362Z,4.65
2019-03-13T22:04:26.143Z,5.00
2019-03-13T22:07:02.679Z,4.80
2019-03-13T22:09:37.622Z,5.45
2019-03-13T22:12:11.639Z,4.72
2019-03-13T22:14:46.639Z,4.25
2019-03-13T22:17:19.460Z,3.52
2019-03-13T22:19:53.687Z,2.27
2019-03-13T22:22:26.829Z,3.60
2019-03-13T22:24:59.528Z,3.87
2019-03-13T22:27:33.356Z,4.00
2019-03-13T22:30:07.647Z,2.70
2019-03-13T22:32:41.740Z,2.83
2019-03-13T22:35:14.514Z,3.70
2019-03-13T22:37:47.407Z,3.55
2019-03-13T22:40:20.917Z,3.60
2019-03-13T22:42:53.645Z,3.77
2019-03-13T22:45:26.572Z,3.50
2019-03-13T22:47:59.321Z,3.15
2019-03-13T22:50:33.289Z,3.58
2019-03-13T22:53:06.228Z,3.52
2019-03-13T22:55:41.037Z,3.30
2019-03-13T22:58:13.415Z,3.35
2019-03-13T23:01:00.446Z,3.40
2019-03-13T23:03:34.959Z,3.42
2019-03-13T23:06:09.242Z,3.00
2019-03-13T23:08:42.089Z,3.30
2019-03-13T23:11:16.094Z,3.75
2019-03-13T23:13:50.520Z,3.25
2019-03-13T23:16:23.989Z,2.52
2019-03-13T23:18:57.010Z,2.85
2019-03-13T23:21:29.913Z,3.35
2019-03-13T23:24:02.893Z,3.47
2019-03-13T23:26:35.984Z,3.12
2019-03-13T23:29:10.599Z,3.20
2019-03-13T23:31:43.442Z,3.25
2019-03-13T23:34:16.370Z,2.98
2019-03-13T23:36:50.462Z,2.65
2019-03-13T23:39:23.179Z,3.02
2019-03-13T23:41:58.018Z,3.22
2019-03-13T23:44:32.183Z,3.33
2019-03-13T23:47:05.106Z,3.37
2019-03-13T23:49:39.157Z,3.10
2019-03-13T23:52:12.232Z,2.92
